Time;durP1;ratioP1;P1;durP2;ratioP2;P2;SDS_P1;SDS_P2;PMS_P1;PMS_P2;Temp;Humidity;BMP_temperature;BMP_pressure;BME280_temperature;BME280_humidity;BME280_pressure;Samples;Min_cycle;Max_cycle;Signal;HPM_P1;HPM_P2
2022/04/30 00:02:13;;;;;;;7.47;5.70;;;;;;;11.53;64.01;100832.72;5035471;28;20525;-87
2022/04/30 00:04:57;;;;;;;8.63;6.00;;;;;;;11.62;64.15;100833.81;5051932;28;20134;-87
2022/04/30 00:07:22;;;;;;;7.15;5.88;;;;;;;11.67;64.12;100834.28;5051900;28;20049;-85
2022/04/30 00:09:48;;;;;;;8.50;6.30;;;;;;;11.59;63.68;100834.03;5051504;28;20055;-85
2022/04/30 00:12:15;;;;;;;8.98;5.70;;;;;;;11.55;64.08;100828.09;5035448;28;20485;-84
2022/04/30 00:14:41;;;;;;;7.15;5.45;;;;;;;11.52;63.96;100816.75;5051734;28;20470;-86
2022/04/30 00:17:07;;;;;;;7.32;5.80;;;;;;;11.33;64.36;100828.06;5035092;28;20036;-85
2022/04/30 00:19:32;;;;;;;7.07;5.82;;;;;;;11.41;64.26;100819.44;5034569;28;20414;-87
2022/04/30 00:21:57;;;;;;;6.70;5.97;;;;;;;11.34;64.72;100825.25;5031919;28;20071;-88
2022/04/30 00:24:24;;;;;;;6.78;5.55;;;;;;;11.32;64.85;100827.22;5034301;28;20029;-88
2022/04/30 00:26:50;;;;;;;6.65;5.40;;;;;;;11.34;65.06;100821.72;5034678;28;20082;-88
2022/04/30 00:29:16;;;;;;;6.25;5.65;;;;;;;11.43;65.22;100815.69;5051672;28;20021;-88
2022/04/30 00:31:41;;;;;;;5.80;5.30;;;;;;;11.45;64.75;100816.41;5035062;28;20025;-86
2022/04/30 00:34:07;;;;;;;7.93;5.70;;;;;;;11.39;64.56;100824.06;5034928;28;20021;-87
2022/04/30 00:36:32;;;;;;;7.15;5.40;;;;;;;11.47;64.87;100814.47;5034180;28;20017;-87
2022/04/30 00:38:57;;;;;;;6.80;5.97;;;;;;;11.41;64.25;100814.94;5052414;28;20032;-88
2022/04/30 00:41:23;;;;;;;7.85;5.85;;;;;;;11.37;64.69;100815.31;5034879;28;20178;-88
2022/04/30 00:43:51;;;;;;;8.88;5.78;;;;;;;11.32;64.64;100815.66;5051588;28;20024;-87
2022/04/30 00:46:23;;;;;;;6.40;5.80;;;;;;;11.32;65.16;100821.00;5035019;28;20029;-87
2022/04/30 00:48:49;;;;;;;7.25;6.07;;;;;;;11.33;65.12;100818.19;5034510;28;20633;-87
2022/04/30 00:51:18;;;;;;;9.15;6.05;;;;;;;11.23;64.54;100819.06;5051082;28;20021;-87
2022/04/30 00:53:46;;;;;;;7.40;6.32;;;;;;;11.19;65.14;100810.41;5051346;28;20427;-85
2022/04/30 00:56:13;;;;;;;7.60;6.22;;;;;;;11.29;64.97;100818.56;5034414;28;20732;-87
2022/04/30 00:58:40;;;;;;;6.43;5.72;;;;;;;11.21;65.13;100810.28;5034231;28;20033;-86
2022/04/30 01:01:06;;;;;;;7.10;6.28;;;;;;;11.12;64.91;100816.38;5034229;28;20470;-87
2022/04/30 01:03:31;;;;;;;9.70;6.25;;;;;;;11.07;65.10;100819.41;5034585;28;20120;-88
2022/04/30 01:05:59;;;;;;;6.40;5.63;;;;;;;11.10;65.44;100823.69;5051074;28;20037;-86
2022/04/30 01:08:30;;;;;;;7.18;5.90;;;;;;;11.08;65.40;100822.94;5034089;28;20024;-87
2022/04/30 01:10:56;;;;;;;7.30;6.25;;;;;;;11.08;65.21;100818.44;5046694;28;20031;-87
2022/04/30 01:13:22;;;;;;;7.15;5.72;;;;;;;11.19;65.57;100817.59;5033689;28;20056;-87
2022/04/30 01:15:47;;;;;;;9.10;5.75;;;;;;;11.21;65.17;100811.16;5034473;28;20068;-88
2022/04/30 01:18:13;;;;;;;7.03;6.18;;;;;;;11.18;64.70;100807.84;5034440;28;20467;-87
2022/04/30 01:20:46;;;;;;;6.72;6.00;;;;;;;10.99;65.02;100806.63;5051235;28;20036;-86
2022/04/30 01:23:13;;;;;;;10.95;5.93;;;;;;;11.00;65.56;100812.84;5034729;28;20044;-88
2022/04/30 01:25:39;;;;;;;8.50;5.93;;;;;;;11.01;64.87;100804.69;5050751;28;20033;-87
2022/04/30 01:28:05;;;;;;;8.52;6.32;;;;;;;11.10;65.09;100803.13;5050793;28;20127;-87
2022/04/30 01:30:30;;;;;;;9.70;6.15;;;;;;;10.93;65.11;100801.75;5050779;28;20056;-86
2022/04/30 01:38:31;;;;;;;6.97;5.60;;;;;;;10.72;65.84;100804.25;5041339;28;20078;-87
2022/04/30 01:40:56;;;;;;;7.55;5.75;;;;;;;10.76;66.00;100801.34;5034166;28;20459;-87
2022/04/30 01:43:22;;;;;;;9.13;6.00;;;;;;;10.80;66.24;100797.44;5050665;28;20049;-87
2022/04/30 01:45:48;;;;;;;7.30;5.70;;;;;;;10.87;65.62;100801.34;5034294;28;20024;-87
2022/04/30 01:48:14;;;;;;;7.40;5.97;;;;;;;10.90;65.79;100801.16;5034082;28;20105;-87
2022/04/30 01:50:41;;;;;;;10.02;6.50;;;;;;;10.82;65.57;100793.69;5033950;28;20033;-87
2022/04/30 01:53:06;;;;;;;9.38;6.18;;;;;;;10.75;66.09;100792.47;5033821;28;20399;-88
2022/04/30 01:55:32;;;;;;;9.93;6.20;;;;;;;10.66;65.74;100795.84;5032690;28;20032;-88
2022/04/30 01:57:57;;;;;;;7.15;5.80;;;;;;;10.79;66.11;100796.59;5033613;28;20036;-87
2022/04/30 02:00:23;;;;;;;8.75;6.20;;;;;;;10.86;65.74;100797.81;5050504;28;20050;-88
2022/04/30 02:02:49;;;;;;;8.00;5.78;;;;;;;10.92;66.12;100794.69;5034053;28;20021;-88
2022/04/30 02:05:16;;;;;;;7.70;6.05;;;;;;;10.82;65.89;100788.34;5050593;28;20065;-88
2022/04/30 02:08:14;;;;;;;8.45;5.97;;;;;;;10.75;65.80;100799.63;5050285;28;20025;-86
2022/04/30 02:10:41;;;;;;;7.13;6.03;;;;;;;10.77;66.13;100790.53;5033377;28;20040;-86
2022/04/30 02:13:08;;;;;;;8.38;6.20;;;;;;;10.83;66.19;100786.50;5050194;28;20025;-87
2022/04/30 02:15:34;;;;;;;6.78;6.07;;;;;;;10.72;66.00;100785.53;5050713;28;20095;-87
2022/04/30 02:18:02;;;;;;;8.70;6.00;;;;;;;10.75;65.79;100789.78;5050007;28;20021;-87
2022/04/30 02:20:38;;;;;;;6.72;6.00;;;;;;;10.57;65.88;100792.06;5033558;28;20028;-87
2022/04/30 02:23:08;;;;;;;9.23;5.50;;;;;;;10.66;66.32;100782.47;5049357;28;20021;-88
2022/04/30 02:25:33;;;;;;;7.95;5.82;;;;;;;10.58;66.51;100782.22;5035466;28;20412;-87
2022/04/30 02:28:04;;;;;;;6.93;5.60;;;;;;;10.63;66.15;100778.22;5036847;28;20079;-86
2022/04/30 02:30:31;;;;;;;8.48;5.82;;;;;;;10.64;65.75;100784.41;5037328;28;20032;-87
2022/04/30 02:33:01;;;;;;;7.38;5.53;;;;;;;10.50;66.52;100779.28;5037341;28;20053;-87
2022/04/30 02:35:29;;;;;;;7.13;5.88;;;;;;;10.51;66.33;100778.31;5037342;28;20486;-86
2022/04/30 02:37:58;;;;;;;9.20;5.77;;;;;;;10.53;66.59;100777.22;5052943;28;20024;-86
2022/04/30 02:40:24;;;;;;;7.88;5.70;;;;;;;10.52;66.13;100772.84;5053841;28;20028;-88
2022/04/30 02:42:51;;;;;;;8.13;5.70;;;;;;;10.44;66.39;100780.59;5036422;28;20060;-86
2022/04/30 02:45:17;;;;;;;10.10;5.30;;;;;;;10.37;66.40;100771.31;5036852;28;20048;-86
2022/04/30 02:47:44;;;;;;;7.53;5.40;;;;;;;10.26;66.80;100769.47;5053332;28;20028;-87
2022/04/30 02:50:14;;;;;;;6.40;5.25;;;;;;;10.28;66.76;100777.34;5036938;28;20040;-86
2022/04/30 02:52:42;;;;;;;6.10;5.20;;;;;;;10.28;66.81;100775.53;5053166;28;20059;-87
2022/04/30 02:55:07;;;;;;;6.55;5.22;;;;;;;10.17;66.89;100774.63;5037134;28;20020;-88
2022/04/30 03:00:33;;;;;;;6.95;5.20;;;;;;;10.30;67.04;100773.59;5053968;28;20378;-87
2022/04/30 03:03:00;;;;;;;6.40;4.78;;;;;;;10.25;66.64;100770.41;5036937;28;20048;-87
2022/04/30 03:05:25;;;;;;;7.97;5.65;;;;;;;10.11;66.66;100770.59;5036769;28;20025;-88
2022/04/30 03:07:51;;;;;;;7.55;5.10;;;;;;;9.97;67.46;100776.97;5036328;28;20035;-87
2022/04/30 03:10:16;;;;;;;7.68;5.63;;;;;;;9.95;67.52;100770.03;5053309;28;20071;-87
2022/04/30 03:12:42;;;;;;;8.52;5.32;;;;;;;9.96;67.91;100769.06;5036740;28;20021;-87
2022/04/30 03:15:09;;;;;;;7.22;5.35;;;;;;;9.96;67.61;100771.72;5036810;28;20466;-85
2022/04/30 03:23:07;;;;;;;7.63;5.20;;;;;;;10.10;67.47;100771.53;5053328;28;20122;-85
2022/04/30 03:25:33;;;;;;;10.30;6.10;;;;;;;9.84;67.39;100776.13;5036056;28;20052;-87
2022/04/30 03:27:59;;;;;;;6.88;5.53;;;;;;;9.79;68.33;100773.81;5052608;28;20095;-86
2022/04/30 03:30:24;;;;;;;6.93;5.70;;;;;;;9.88;68.05;100774.94;5036386;28;20124;-88
2022/04/30 03:32:50;;;;;;;7.22;5.47;;;;;;;9.89;68.13;100779.31;5052884;28;20448;-87
2022/04/30 03:35:15;;;;;;;6.80;5.28;;;;;;;9.76;68.43;100770.50;5035762;28;20067;-85
2022/04/30 03:37:41;;;;;;;6.93;5.38;;;;;;;9.59;68.42;100771.75;5035559;28;20071;-86
2022/04/30 03:40:07;;;;;;;8.27;5.55;;;;;;;9.72;68.66;100771.69;5052541;28;20048;-87
2022/04/30 03:42:33;;;;;;;7.82;5.60;;;;;;;9.77;68.13;100767.72;5035936;28;20024;-85
2022/04/30 03:45:02;;;;;;;8.40;5.68;;;;;;;9.58;68.93;100771.84;5035552;28;20111;-87
2022/04/30 03:47:27;;;;;;;7.45;5.47;;;;;;;9.67;69.06;100769.38;5035783;28;20117;-86
2022/04/30 03:49:53;;;;;;;7.80;5.80;;;;;;;9.64;69.19;100772.25;5035676;28;20117;-87
2022/04/30 03:52:18;;;;;;;7.75;5.45;;;;;;;9.70;68.79;100763.81;5052336;28;20124;-87
2022/04/30 03:54:44;;;;;;;7.45;5.35;;;;;;;9.69;68.50;100767.44;5035154;28;20057;-88
2022/04/30 03:57:09;;;;;;;6.88;5.55;;;;;;;9.71;68.62;100772.66;5035396;28;20033;-87
2022/04/30 03:59:34;;;;;;;6.65;5.32;;;;;;;9.76;68.44;100767.84;5035776;28;20070;-86
2022/04/30 04:02:00;;;;;;;7.75;5.70;;;;;;;9.69;68.30;100771.91;5036074;28;20031;-86
2022/04/30 04:04:26;;;;;;;6.80;5.35;;;;;;;9.64;68.96;100774.94;5034980;28;20488;-86
2022/04/30 04:06:53;;;;;;;8.30;5.47;;;;;;;9.63;68.92;100773.22;5035299;28;20397;-87
2022/04/30 04:09:18;;;;;;;6.07;5.22;;;;;;;9.63;69.15;100778.56;5035221;28;20028;-87
2022/04/30 04:11:43;;;;;;;7.60;5.60;;;;;;;9.61;68.90;100780.50;5035485;28;20025;-85
2022/04/30 04:19:36;;;;;;;6.85;5.45;;;;;;;9.83;68.25;100784.25;5051815;28;20086;-84
2022/04/30 04:22:03;;;;;;;7.25;5.25;;;;;;;9.80;68.38;100788.00;5034970;28;20465;-87
2022/04/30 04:27:12;;;;;;;6.25;5.65;;;;;;;9.67;68.44;100787.22;5052446;28;20090;-85
2022/04/30 04:29:38;;;;;;;6.97;5.22;;;;;;;9.72;68.87;100793.06;5034831;28;20021;-85
2022/04/30 04:32:03;;;;;;;6.88;5.35;;;;;;;9.77;68.58;100791.75;5051516;28;20040;-83
2022/04/30 04:34:29;;;;;;;8.35;5.50;;;;;;;9.84;68.75;100789.50;5050901;28;20123;-85
2022/04/30 04:36:54;;;;;;;6.95;5.20;;;;;;;9.80;68.48;100793.34;5034490;28;20051;-84
2022/04/30 04:39:19;;;;;;;7.38;5.45;;;;;;;9.83;68.46;100793.13;5034768;28;20466;-85
2022/04/30 04:41:45;;;;;;;6.78;5.30;;;;;;;9.79;68.51;100795.16;5034487;28;20025;-84
2022/04/30 04:44:10;;;;;;;6.57;5.13;;;;;;;9.74;68.80;100791.13;5051401;28;20059;-84
2022/04/30 04:46:38;;;;;;;6.97;5.47;;;;;;;9.69;68.86;100796.81;5033716;28;20386;-83
2022/04/30 04:49:04;;;;;;;6.28;5.25;;;;;;;9.70;68.81;100800.34;5033906;28;20032;-83
2022/04/30 04:51:30;;;;;;;5.95;5.07;;;;;;;9.75;68.85;100799.03;5034470;28;20095;-84
2022/04/30 04:53:55;;;;;;;7.15;5.10;;;;;;;9.64;68.77;100796.28;5033953;28;20129;-85
2022/04/30 04:56:20;;;;;;;6.95;4.97;;;;;;;9.64;68.72;100798.13;5034523;28;20024;-86
2022/04/30 04:58:46;;;;;;;8.35;5.40;;;;;;;9.78;69.02;100806.81;5034287;28;20025;-85
2022/04/30 05:01:11;;;;;;;6.35;4.88;;;;;;;9.79;68.71;100805.84;5034240;28;20017;-83
2022/04/30 05:03:36;;;;;;;6.90;5.10;;;;;;;9.71;68.97;100808.25;5033662;28;20541;-86
2022/04/30 05:06:03;;;;;;;6.82;5.10;;;;;;;9.71;69.23;100826.94;5051180;28;20135;-85
2022/04/30 05:08:28;;;;;;;8.18;5.85;;;;;;;9.71;68.65;100824.25;5034037;28;20446;-85
2022/04/30 05:10:54;;;;;;;8.10;5.45;;;;;;;9.73;68.78;100829.50;5034070;28;20032;-84
2022/04/30 05:13:19;;;;;;;7.28;5.00;;;;;;;9.70;68.78;100827.03;5033950;28;20105;-86
2022/04/30 05:15:44;;;;;;;5.35;4.75;;;;;;;9.83;68.68;100822.50;5033605;28;20040;-86
2022/04/30 05:18:10;;;;;;;7.38;5.53;;;;;;;9.76;68.83;100823.94;5033831;28;20421;-84
2022/04/30 05:20:35;;;;;;;8.88;4.97;;;;;;;9.79;68.88;100823.69;5034013;28;20498;-85
2022/04/30 05:23:00;;;;;;;6.28;5.28;;;;;;;9.69;68.79;100831.53;5050270;28;20016;-85
2022/04/30 05:25:26;;;;;;;7.70;5.22;;;;;;;9.69;69.17;100836.03;5050258;28;20048;-86
2022/04/30 05:27:52;;;;;;;8.07;4.97;;;;;;;9.76;68.73;100829.25;5050002;28;20471;-86
2022/04/30 05:30:17;;;;;;;9.00;5.38;;;;;;;9.70;69.21;100824.38;5033899;28;20067;-86
2022/04/30 05:32:43;;;;;;;7.75;5.18;;;;;;;9.74;69.17;100837.41;5050609;28;20040;-83
2022/04/30 05:35:09;;;;;;;5.68;4.70;;;;;;;9.69;69.07;100831.53;5033884;28;20029;-83
2022/04/30 05:37:34;;;;;;;6.25;5.05;;;;;;;9.59;69.22;100833.16;5033257;28;20374;-84
2022/04/30 05:39:59;;;;;;;6.38;5.32;;;;;;;9.66;69.36;100831.75;5033507;28;20033;-84
2022/04/30 05:42:24;;;;;;;9.23;5.22;;;;;;;9.40;69.29;100830.94;5030050;28;20018;-84
2022/04/30 05:44:50;;;;;;;7.88;4.65;;;;;;;9.21;69.73;100833.19;5016718;28;20351;-86
2022/04/30 05:47:17;;;;;;;5.43;4.63;;;;;;;9.24;70.17;100834.78;5033192;28;20526;-83
2022/04/30 05:49:42;;;;;;;7.30;5.00;;;;;;;9.50;70.27;100830.31;5050144;28;20025;-83
2022/04/30 05:52:07;;;;;;;9.25;4.80;;;;;;;9.43;69.80;100837.88;5032963;28;20090;-87
2022/04/30 05:54:32;;;;;;;7.35;5.00;;;;;;;9.56;69.75;100841.41;5050969;28;20033;-86
2022/04/30 05:56:58;;;;;;;7.47;4.85;;;;;;;9.32;69.89;100835.09;5033937;28;20025;-83
2022/04/30 05:59:23;;;;;;;8.00;5.20;;;;;;;9.20;70.19;100838.63;5036066;28;20032;-85
2022/04/30 06:01:48;;;;;;;8.38;5.07;;;;;;;9.23;70.73;100835.75;5054300;28;20031;-85
2022/04/30 06:04:14;;;;;;;6.53;4.78;;;;;;;9.28;70.31;100837.13;5037586;28;20031;-85
2022/04/30 06:06:39;;;;;;;5.82;4.85;;;;;;;9.41;70.50;100831.78;5036810;28;20039;-85
2022/04/30 06:09:04;;;;;;;7.80;5.30;;;;;;;9.42;70.07;100844.16;5036852;28;20041;-84
2022/04/30 06:11:30;;;;;;;8.05;4.50;;;;;;;9.31;70.37;100847.59;5037402;28;20025;-83
2022/04/30 06:13:55;;;;;;;6.40;5.25;;;;;;;9.15;70.37;100842.50;5037078;28;20452;-85
2022/04/30 06:16:20;;;;;;;6.45;5.25;;;;;;;9.21;70.98;100843.00;5053351;28;20613;-85
2022/04/30 06:18:45;;;;;;;6.18;4.60;;;;;;;9.31;70.67;100850.25;5035973;28;20025;-85
2022/04/30 06:21:11;;;;;;;8.43;5.80;;;;;;;9.50;70.57;100846.31;5035694;28;20041;-86
2022/04/30 06:23:36;;;;;;;9.68;6.32;;;;;;;9.59;70.39;100845.66;5035734;28;20112;-85
2022/04/30 06:26:01;;;;;;;8.13;6.05;;;;;;;9.66;69.91;100842.44;5035322;28;20120;-84
2022/04/30 06:28:27;;;;;;;6.90;5.85;;;;;;;9.74;69.87;100853.41;5035315;28;20060;-84
2022/04/30 06:30:52;;;;;;;7.95;5.60;;;;;;;9.75;69.71;100846.25;5054091;28;20025;-84
2022/04/30 06:33:17;;;;;;;8.68;5.90;;;;;;;9.75;69.72;100852.47;5054694;28;20033;-83
2022/04/30 06:35:44;;;;;;;8.63;5.88;;;;;;;9.83;70.02;100851.03;5052878;28;20063;-84
2022/04/30 06:38:09;;;;;;;7.07;6.07;;;;;;;9.84;70.03;100856.28;5033503;28;20036;-84
2022/04/30 06:40:34;;;;;;;8.77;6.40;;;;;;;9.89;69.83;100846.09;5033684;28;20021;-83
2022/04/30 06:43:00;;;;;;;10.63;6.47;;;;;;;9.98;69.64;100845.47;5034312;28;20029;-86
2022/04/30 06:45:25;;;;;;;7.70;6.20;;;;;;;9.97;69.35;100853.59;5033932;28;20506;-83
2022/04/30 06:47:51;;;;;;;10.00;6.93;;;;;;;9.78;69.28;100852.22;5033901;28;20017;-83
2022/04/30 06:50:16;;;;;;;8.88;6.80;;;;;;;9.77;69.75;100855.00;5034168;28;20020;-85
2022/04/30 06:58:09;;;;;;;9.77;7.15;;;;;;;9.81;69.71;100855.66;5051209;28;20040;-81
2022/04/30 07:03:32;;;;;;;8.82;6.50;;;;;;;10.07;69.55;100862.63;5016473;28;20386;-81
2022/04/30 07:06:04;;;;;;;10.18;6.15;;;;;;;10.28;69.51;100865.56;5046611;28;20013;-80
2022/04/30 07:08:33;;;;;;;9.30;5.90;;;;;;;10.32;69.39;100864.38;5049044;28;20036;-82
2022/04/30 07:11:00;;;;;;;11.15;6.43;;;;;;;10.29;69.53;100865.47;5033098;28;20370;-81
2022/04/30 07:13:26;;;;;;;7.82;6.25;;;;;;;10.35;69.38;100873.03;5050899;28;20044;-80
2022/04/30 07:15:51;;;;;;;7.65;6.45;;;;;;;10.37;69.16;100871.09;5050593;28;20482;-80
2022/04/30 07:18:16;;;;;;;13.05;7.63;;;;;;;10.35;68.70;100874.84;5052036;28;20118;-81
2022/04/30 07:20:42;;;;;;;8.65;7.30;;;;;;;10.25;68.40;100871.16;5050043;28;20490;-85
2022/04/30 07:23:08;;;;;;;9.48;7.45;;;;;;;10.17;69.40;100870.84;5036266;28;20416;-86
2022/04/30 07:25:33;;;;;;;11.40;8.90;;;;;;;10.09;68.65;100868.72;5033285;28;20130;-85
2022/04/30 07:27:58;;;;;;;11.90;8.73;;;;;;;10.14;69.22;100874.59;5033631;28;20471;-87
2022/04/30 07:30:24;;;;;;;12.05;9.10;;;;;;;10.24;68.56;100870.28;5034400;28;20029;-87
2022/04/30 07:32:49;;;;;;;13.40;9.10;;;;;;;10.22;68.75;100866.88;5051673;28;20029;-85
2022/04/30 07:35:14;;;;;;;13.10;8.68;;;;;;;10.35;68.76;100878.38;5049173;28;20029;-85
2022/04/30 07:37:40;;;;;;;10.95;9.52;;;;;;;10.43;68.15;100875.16;5051421;28;20041;-84
2022/04/30 07:40:05;;;;;;;10.18;9.15;;;;;;;10.53;68.04;100872.63;5035380;28;20036;-84
2022/04/30 07:42:31;;;;;;;10.88;9.77;;;;;;;10.63;67.87;100876.31;5051700;28;20033;-85
2022/04/30 07:44:59;;;;;;;12.00;10.30;;;;;;;10.63;67.36;100873.66;5035264;28;20040;-84
2022/04/30 07:47:25;;;;;;;11.75;10.27;;;;;;;10.56;67.48;100862.56;5051218;28;20164;-85
2022/04/30 07:49:51;;;;;;;13.35;10.85;;;;;;;10.58;67.62;100862.44;5050866;28;20115;-84
2022/04/30 07:52:16;;;;;;;15.27;11.05;;;;;;;10.60;67.71;100861.38;5032957;28;20617;-85
2022/04/30 07:54:43;;;;;;;13.88;11.10;;;;;;;10.52;67.60;100862.91;5048815;28;20046;-84
2022/04/30 07:57:08;;;;;;;13.38;10.38;;;;;;;10.47;67.66;100865.94;5049422;28;20354;-84
2022/04/30 07:59:33;;;;;;;12.18;10.80;;;;;;;10.39;67.81;100863.81;5050247;28;20035;-84
2022/04/30 08:01:58;;;;;;;12.57;10.13;;;;;;;10.24;68.55;100861.41;5029792;28;20025;-85
2022/04/30 08:04:24;;;;;;;11.38;9.52;;;;;;;10.23;67.81;100862.38;5033393;28;20017;-84
2022/04/30 08:06:49;;;;;;;10.90;8.95;;;;;;;10.24;68.40;100864.09;5046478;28;20060;-84
2022/04/30 08:09:15;;;;;;;10.23;8.60;;;;;;;10.36;68.60;100866.72;5033501;28;20485;-85
2022/04/30 08:11:41;;;;;;;9.82;8.40;;;;;;;10.54;68.21;100864.50;5049023;28;20116;-84
2022/04/30 08:14:07;;;;;;;8.80;7.32;;;;;;;10.49;67.92;100869.34;5033445;28;20505;-85
2022/04/30 08:16:32;;;;;;;7.82;6.68;;;;;;;10.56;67.77;100864.38;5019326;28;20104;-85
2022/04/30 08:18:58;;;;;;;7.35;6.38;;;;;;;10.46;67.23;100866.06;5034771;28;20017;-84
2022/04/30 08:21:24;;;;;;;8.82;7.03;;;;;;;10.35;67.62;100862.31;5033762;28;20021;-85
2022/04/30 08:23:49;;;;;;;7.38;6.40;;;;;;;10.54;67.52;100864.50;5029875;28;20021;-84
2022/04/30 08:26:15;;;;;;;8.15;6.22;;;;;;;10.47;67.04;100871.28;5014610;28;20108;-84
2022/04/30 08:28:41;;;;;;;7.63;6.32;;;;;;;10.30;67.76;100868.97;5023165;28;20044;-84
2022/04/30 08:31:06;;;;;;;8.15;6.25;;;;;;;10.19;68.52;100869.75;5050070;28;20024;-84
2022/04/30 08:33:31;;;;;;;6.35;5.70;;;;;;;10.19;68.71;100872.44;5050011;28;20458;-85
2022/04/30 08:35:57;;;;;;;10.25;5.93;;;;;;;10.22;68.62;100874.91;5034134;28;20029;-84
2022/04/30 08:38:22;;;;;;;11.07;6.28;;;;;;;9.97;68.42;100872.28;5050798;28;20486;-84
2022/04/30 08:40:48;;;;;;;8.63;6.43;;;;;;;9.94;68.96;100864.50;5034384;28;20048;-84
2022/04/30 08:43:14;;;;;;;8.15;5.47;;;;;;;10.06;68.74;100859.13;5034341;28;20493;-85
2022/04/30 08:45:41;;;;;;;7.38;5.75;;;;;;;10.31;68.16;100860.00;5034011;28;20078;-85
2022/04/30 08:48:09;;;;;;;8.18;5.65;;;;;;;10.43;67.52;100861.78;5030904;28;20029;-85
2022/04/30 08:50:35;;;;;;;8.23;5.97;;;;;;;10.44;66.92;100862.63;5013808;28;20017;-84
2022/04/30 08:53:00;;;;;;;7.05;5.88;;;;;;;10.65;66.36;100858.34;5032946;28;20376;-85
2022/04/30 08:55:26;;;;;;;7.00;5.25;;;;;;;10.74;65.25;100860.31;5049218;28;20133;-84
2022/04/30 08:57:51;;;;;;;5.80;4.50;;;;;;;10.89;64.28;100852.97;5026459;28;20029;-85
2022/04/30 09:00:17;;;;;;;6.03;4.63;;;;;;;10.94;63.33;100864.16;5021126;28;20032;-85
2022/04/30 09:02:54;;;;;;;4.97;4.07;;;;;;;10.96;62.69;100852.38;5038869;28;20060;-84
2022/04/30 09:05:20;;;;;;;8.60;4.70;;;;;;;10.64;63.41;100851.28;5046728;28;20478;-84
2022/04/30 09:07:55;;;;;;;4.78;4.13;;;;;;;10.49;64.03;100852.44;5046695;28;20021;-84
2022/04/30 09:10:27;;;;;;;5.95;4.03;;;;;;;10.44;64.52;100852.78;5029856;28;20034;-84
2022/04/30 09:12:53;;;;;;;6.20;3.97;;;;;;;10.43;63.42;100848.41;5029248;28;20048;-84
2022/04/30 09:15:19;;;;;;;7.53;3.92;;;;;;;10.46;64.23;100853.53;5031422;28;20083;-84
2022/04/30 09:18:00;;;;;;;5.20;3.83;;;;;;;10.50;63.14;100854.16;5049748;28;20033;-84
2022/04/30 09:20:26;;;;;;;5.18;3.33;;;;;;;10.55;63.50;100849.31;5033333;28;20392;-86
2022/04/30 09:22:52;;;;;;;4.65;3.17;;;;;;;10.65;62.97;100844.97;5030708;28;20035;-85
2022/04/30 09:25:18;;;;;;;4.22;3.53;;;;;;;10.75;62.29;100842.44;5028117;28;20037;-85
2022/04/30 09:27:48;;;;;;;5.75;3.55;;;;;;;10.88;61.59;100838.72;5033018;28;20470;-84
2022/04/30 09:30:29;;;;;;;4.25;3.50;;;;;;;10.90;60.52;100842.13;5031787;28;20029;-85
2022/04/30 09:33:04;;;;;;;4.70;3.53;;;;;;;10.73;59.54;100834.53;5037658;28;20460;-85
2022/04/30 09:38:15;;;;;;;5.95;3.38;;;;;;;10.89;60.45;100831.56;5053542;28;20075;-85
2022/04/30 09:40:41;;;;;;;4.30;3.35;;;;;;;10.88;59.35;100832.50;5014828;28;20065;-84
2022/04/30 09:43:16;;;;;;;4.63;2.85;;;;;;;10.70;58.60;100834.75;5036395;28;20025;-85
2022/04/30 09:45:41;;;;;;;4.95;2.80;;;;;;;10.49;57.93;100831.91;5034061;28;20083;-84
2022/04/30 09:53:56;;;;;;;4.45;3.15;;;;;;;10.53;58.80;100832.53;5045141;28;20029;-84
2022/04/30 09:53:56;;;;;;;4.18;3.13;;;;;;;10.73;58.19;100831.84;5053783;28;20044;-84
2022/04/30 09:56:37;;;;;;;6.00;3.30;;;;;;;10.68;57.71;100826.84;5054107;28;20112;-84
2022/04/30 09:59:05;;;;;;;5.38;3.10;;;;;;;10.76;57.84;100822.75;5037224;28;20127;-85
2022/04/30 10:01:32;;;;;;;7.07;3.13;;;;;;;10.85;57.61;100816.69;5026063;28;20020;-85
2022/04/30 10:03:58;;;;;;;5.60;3.08;;;;;;;10.96;58.14;100812.22;5053867;28;20071;-85
2022/04/30 10:06:23;;;;;;;4.75;2.97;;;;;;;11.26;58.56;100816.13;5037019;28;20021;-85
2022/04/30 10:08:49;;;;;;;3.80;3.00;;;;;;;11.41;58.79;100812.28;5053834;28;20094;-85
2022/04/30 10:11:39;;;;;;;6.20;3.47;;;;;;;11.48;58.85;100807.28;5053876;28;20040;-85
2022/04/30 10:14:42;;;;;;;4.63;3.65;;;;;;;11.43;58.15;100809.47;5024676;28;20470;-85
2022/04/30 10:17:12;;;;;;;4.90;3.85;;;;;;;11.08;60.20;100818.44;5034535;28;20021;-85
2022/04/30 10:19:39;;;;;;;5.55;4.00;;;;;;;10.92;61.20;100810.75;5034216;28;20487;-85
2022/04/30 10:22:16;;;;;;;5.38;3.83;;;;;;;10.85;62.04;100814.00;5048914;28;20379;-85
2022/04/30 10:24:48;;;;;;;5.63;4.00;;;;;;;10.84;61.57;100812.28;5017975;28;20028;-86
2022/04/30 10:27:15;;;;;;;5.82;4.05;;;;;;;10.98;61.40;100815.63;5033330;28;20032;-84
2022/04/30 10:29:52;;;;;;;4.50;3.50;;;;;;;10.99;61.17;100801.28;5021657;28;20071;-85
2022/04/30 10:32:53;;;;;;;3.80;3.25;;;;;;;11.15;60.80;100797.41;5024311;28;20048;-85
2022/04/30 10:35:27;;;;;;;4.70;3.53;;;;;;;11.32;58.99;100800.44;5032603;28;20525;-85
2022/04/30 10:37:53;;;;;;;5.72;3.78;;;;;;;11.43;58.56;100798.75;5034479;28;20348;-85
2022/04/30 10:40:18;;;;;;;5.70;3.70;;;;;;;11.54;58.68;100788.03;5036407;28;20063;-85
2022/04/30 10:42:45;;;;;;;4.88;3.60;;;;;;;11.40;57.15;100797.19;5049472;28;20124;-84
2022/04/30 10:45:15;;;;;;;3.58;3.28;;;;;;;11.29;57.30;100791.78;5015429;28;20467;-85
2022/04/30 10:47:55;;;;;;;7.47;3.45;;;;;;;11.35;57.51;100784.16;5033051;28;20044;-85
2022/04/30 10:50:21;;;;;;;3.70;3.10;;;;;;;11.34;57.55;100786.94;5024052;28;20264;-84
2022/04/30 10:52:48;;;;;;;3.75;3.33;;;;;;;11.34;57.50;100781.56;5051962;28;20065;-85
2022/04/30 10:55:15;;;;;;;4.38;3.45;;;;;;;11.45;58.31;100783.41;5052897;28;20386;-85
2022/04/30 10:57:41;;;;;;;4.35;2.85;;;;;;;11.52;58.14;100772.06;5036130;28;20017;-85
2022/04/30 11:00:07;;;;;;;5.60;3.75;;;;;;;11.51;57.14;100781.09;5053261;28;20057;-84
2022/04/30 11:02:32;;;;;;;4.03;2.80;;;;;;;11.47;57.37;100781.47;5035958;28;20474;-85
2022/04/30 11:04:58;;;;;;;5.93;3.78;;;;;;;11.46;57.17;100785.13;5036141;28;20491;-85
2022/04/30 11:07:26;;;;;;;4.05;2.97;;;;;;;11.30;56.17;100774.75;5035407;28;20554;-84
2022/04/30 11:09:51;;;;;;;6.35;3.10;;;;;;;11.18;56.23;100775.75;5035992;28;20028;-85
2022/04/30 11:12:17;;;;;;;4.85;3.22;;;;;;;11.26;56.40;100775.97;5052298;28;20056;-85
2022/04/30 11:14:44;;;;;;;5.30;3.17;;;;;;;11.28;56.28;100771.34;5036077;28;20108;-85
2022/04/30 11:17:10;;;;;;;4.13;3.03;;;;;;;11.40;56.04;100758.84;5052467;28;20017;-85
2022/04/30 11:19:40;;;;;;;4.07;3.10;;;;;;;11.54;56.26;100751.38;5035711;28;20552;-84
2022/04/30 11:22:07;;;;;;;4.75;2.97;;;;;;;11.83;56.77;100746.38;5035836;28;20036;-84
2022/04/30 11:24:32;;;;;;;5.13;3.10;;;;;;;11.88;55.41;100746.84;5051329;28;20025;-85
2022/04/30 11:26:59;;;;;;;5.20;3.22;;;;;;;11.91;56.02;100745.72;5046346;28;20041;-85
2022/04/30 11:29:25;;;;;;;5.07;3.55;;;;;;;11.75;55.70;100747.91;5050312;28;20086;-85
2022/04/30 11:31:52;;;;;;;4.18;3.50;;;;;;;11.68;56.24;100747.56;5035281;28;20052;-74
2022/04/30 11:34:17;;;;;;;3.72;3.33;;;;;;;11.61;55.66;100743.69;5039489;28;20076;-75
2022/04/30 11:36:44;;;;;;;3.90;3.22;;;;;;;11.67;55.49;100733.31;5013958;28;20034;-72
2022/04/30 11:39:10;;;;;;;5.20;3.50;;;;;;;11.84;55.46;100736.50;5033277;28;20383;-75
2022/04/30 11:41:39;;;;;;;3.83;2.92;;;;;;;12.01;56.02;100735.09;5031876;28;20037;-75
2022/04/30 11:44:05;;;;;;;4.70;2.97;;;;;;;12.19;56.22;100729.03;5031983;28;20071;-74
2022/04/30 11:46:30;;;;;;;7.90;3.67;;;;;;;12.17;54.67;100722.94;5032679;28;20037;-75
2022/04/30 11:48:56;;;;;;;4.70;3.13;;;;;;;12.19;54.68;100720.13;5033182;28;20057;-75
2022/04/30 11:51:21;;;;;;;4.72;3.05;;;;;;;12.33;54.48;100719.00;5049373;28;20044;-74
2022/04/30 11:53:47;;;;;;;4.28;3.88;;;;;;;12.37;54.93;100713.22;5052018;28;20146;-74
2022/04/30 11:56:12;;;;;;;5.00;3.10;;;;;;;12.36;54.00;100721.41;5051780;28;20036;-74
2022/04/30 11:58:43;;;;;;;4.10;3.50;;;;;;;12.19;53.87;100718.31;5050858;28;20021;-75
2022/04/30 12:01:20;;;;;;;3.92;3.20;;;;;;;12.13;54.28;100724.19;5046313;28;20017;-75
2022/04/30 12:03:46;;;;;;;4.28;3.20;;;;;;;11.96;53.78;100730.97;5051222;28;20079;-76